< < Back
Terminal Aerodrome Forecast


Current Version              Previous Versions:   1  2  3  4  5  6  7  8  9  

Terminal Aerodrome Forecast

658
FTAK31 PAJN 231746
TAFAHN
TAF
PAHN 231746Z 2318/2418 08015G25KT P6SM -RA BKN012 OVC040
      TEMPO 2318/2320 3SM -RA BR OVC012
     FM232000 11015G25KT 3SM RA BR BKN010 OVC025
     FM240300 13010G20KT 4SM -SHRA BR BKN015 OVC025
     FM240900 09010KT 6SM -SHRA BR BKN015 OVC035
      AMD LTD TO CLD VIS AND WIND=

Latest METAR

530
SAUS70 KWBC 232100 RRA
MTRAHN
METAR KAHN 232051Z VRB04KT 9SM -RA BKN090 BKN110 25/23 A3002 RMK AO2 LTG
DSNT SW TSB1958E16 SLP157 P0000 60000 T02500233 50002


USA.gov is the U.S. government's official web portal to all federal, state and local government web resources and services.